createdAt,value
2022-07-31T00:00:05.258Z,83.34
2022-07-31T00:02:57.162Z,80.31
2022-07-31T00:05:46.058Z,79.83
2022-07-31T00:08:25.608Z,77.68
2022-07-31T00:11:02.516Z,76.22
2022-07-31T00:13:56.782Z,78.48
2022-07-31T00:16:38.737Z,78.03
2022-07-31T00:19:24.721Z,72.54
2022-07-31T00:24:57.171Z,70.39
2022-07-31T00:27:34.074Z,70.56
2022-07-31T00:30:15.819Z,70.82
2022-07-31T00:33:12.889Z,69.35
2022-07-31T00:35:55.903Z,68.86
2022-07-31T00:38:39.696Z,67.19
2022-07-31T00:44:12.483Z,69.19
2022-07-31T00:46:47.142Z,70.04
2022-07-31T00:49:53.139Z,67.41
2022-07-31T00:52:25.663Z,68.87
2022-07-31T00:54:59.779Z,67.75
2022-07-31T00:57:39.237Z,68.69
2022-07-31T01:00:16.582Z,65.94
2022-07-31T01:02:50.369Z,65.95
2022-07-31T01:08:27.782Z,67.54
2022-07-31T01:11:24.982Z,66.83
2022-07-31T01:14:04.204Z,65.25
2022-07-31T01:16:47.697Z,67.10
2022-07-31T01:19:37.917Z,65.51
2022-07-31T01:22:35.355Z,65.64
2022-07-31T01:25:27.066Z,64.42
2022-07-31T01:31:24.243Z,65.38
2022-07-31T01:56:02.370Z,70.44
2022-07-31T01:59:31.886Z,69.35
2022-07-31T02:02:52.487Z,69.91
2022-07-31T02:05:33.242Z,74.84
2022-07-31T02:08:16.998Z,79.93
2022-07-31T02:10:54.537Z,78.05
2022-07-31T02:13:35.171Z,78.86
2022-07-31T02:16:13.822Z,77.41
2022-07-31T02:19:04.863Z,76.37
2022-07-31T02:21:40.227Z,77.37
2022-07-31T02:24:32.171Z,77.19
2022-07-31T02:27:58.213Z,76.07
2022-07-31T02:30:07.958Z,76.09
2022-07-31T02:32:49.097Z,81.14
2022-07-31T02:35:44.080Z,85.83
2022-07-31T02:38:22.512Z,85.66
2022-07-31T08:07:42.523Z,32.65
2022-07-31T08:10:33.270Z,33.60
2022-07-31T09:05:05.339Z,31.48
2022-07-31T09:07:33.803Z,30.98
2022-07-31T09:11:20.620Z,29.92
2022-07-31T09:14:11.828Z,29.25
2022-07-31T09:22:12.736Z,31.14
2022-07-31T09:25:41.413Z,32.22
2022-07-31T09:37:18.994Z,32.68
2022-07-31T09:41:53.534Z,29.27
2022-07-31T09:45:04.839Z,30.86
2022-07-31T09:48:08.274Z,32.63
2022-07-31T09:55:56.856Z,33.05
2022-07-31T09:59:00.708Z,34.72
2022-07-31T10:02:02.227Z,33.89
2022-07-31T10:04:36.677Z,36.48
2022-07-31T10:07:31.784Z,35.32
2022-07-31T10:10:44.402Z,40.66
2022-07-31T10:13:34.535Z,37.60
2022-07-31T10:16:05.829Z,39.64
2022-07-31T10:19:29.106Z,36.41
2022-07-31T12:26:56.081Z,40.28
2022-07-31T12:29:33.556Z,39.40
2022-07-31T12:32:56.711Z,36.57
2022-07-31T12:36:14.726Z,35.84
2022-07-31T12:43:50.023Z,36.70
2022-07-31T13:17:48.065Z,35.01
2022-07-31T13:37:06.516Z,37.75
2022-07-31T14:41:16.201Z,32.48
2022-07-31T15:04:04.856Z,33.25
2022-07-31T15:11:09.364Z,34.61
2022-07-31T15:17:43.190Z,32.80
2022-07-31T15:21:17.147Z,34.88
2022-07-31T15:51:29.696Z,34.11
2022-07-31T15:54:19.326Z,32.42
2022-07-31T15:57:12.874Z,30.67
2022-07-31T15:59:48.022Z,30.96
2022-07-31T16:02:21.253Z,33.26
2022-07-31T16:05:11.005Z,33.68
2022-07-31T16:08:31.905Z,32.27
2022-07-31T16:10:34.318Z,34.97
2022-07-31T16:13:05.639Z,32.46
2022-07-31T16:15:35.280Z,30.96
2022-07-31T16:18:10.692Z,31.92
2022-07-31T16:21:56.693Z,31.93
2022-07-31T16:24:26.174Z,32.50
2022-07-31T22:46:52.391Z,58.00
2022-07-31T22:49:20.765Z,59.00
2022-07-31T22:51:50.133Z,58.48
2022-07-31T22:57:06.569Z,61.15
2022-07-31T22:59:38.220Z,59.99
2022-07-31T23:02:09.700Z,60.25
2022-07-31T23:07:20.142Z,59.88
2022-07-31T23:09:48.159Z,60.27
2022-07-31T23:12:18.759Z,60.59
2022-07-31T23:18:28.406Z,58.06
2022-07-31T23:20:56.689Z,59.58
2022-07-31T23:23:24.546Z,59.77
2022-07-31T23:25:52.848Z,62.05
2022-07-31T23:28:20.474Z,62.21
2022-07-31T23:30:51.434Z,57.56
2022-07-31T23:33:23.178Z,60.59
2022-07-31T23:35:51.109Z,60.76
2022-07-31T23:38:19.979Z,60.50
2022-07-31T23:40:56.518Z,58.81
2022-07-31T23:43:28.610Z,59.66
2022-07-31T23:45:59.023Z,56.21
2022-07-31T23:48:59.992Z,57.29
2022-07-31T23:51:29.937Z,55.42
2022-07-31T23:56:53.014Z,56.36
2022-07-31T23:59:24.781Z,57.94
